首页
METAR-TAF:

METAR-TAF

机场 :

谢列梅捷沃国际机场

莫斯科舍列梅季耶夫, 俄罗斯

纬度: 55-58N, 经度: 037-25E, 海拔: 190米

当前天气观测

该预报发布于28分钟前的20:30 UTC
风速4节,风向西北
温度 14°C
湿度 88%
气压 1027 hPa
能见度10公里或以上
1500米以下无云,无积雨云

METAR: UUEE 222030Z 31002MPS CAVOK 14/12 Q1027 R24C/CLRD62 R24L/CLRD62 NOSIG

时间: 23:58 (20:58 UTC)

预报

该预报发布于59分钟前的19:59 UTC
预报有效从22日的 21点(UTC)到 23日的 21点(UTC)
风速6节,风向西北
能见度10公里或以上
散云层高于2000英尺

TAF: UUEE 221959Z 2221/2321 32003MPS 9999 SCT020 TX22/2312Z TN11/2302Z

超过4000个机场的气象观测和天气预报(METAR&TAF报告)。

可查询的气象台以黄色和红色小点在地图上表示。

将鼠标移到小点上方,可查看气象台名称。

然后点击查看天气观测和预报。

如需切换地图:点击带黑十字的绿色按钮放大地图;点击带横线的绿色按钮缩小地图;或者点击绿色箭头查看邻近地区的地图。


METAR-TAF: